DLH947 EGCC-EDDF
Flight info
| Callsign | DLH947 |
|---|---|
| Flight time | N/A |
| Altitude | 37000 |
| Route | DESIG L603 DOLAS DCT NAVPI DCT NOLRU DCT DIXAT DIXAT1A |
| Aircraft | A320/M-SDE3FGHIRWY/LB1 |
Departure
| Time | 2026-05-06 14:58 |
|---|---|
| Airport | Manchester Airport (EGCC) |
Arrival
| Time | N/A |
|---|---|
| Airport | Frankfurt Main Airport (EDDF) |
| Time | Latitude | Longitude | Altitude | Speed | Heading |
|---|---|---|---|---|---|
| 2026-05-06 14:25 | 53.36645 | -2.28549 | 233 ft | 0 kts | 133° |
| 2026-05-06 14:41 | 53.36624 | -2.28030 | 235 ft | 0 kts | 133° |
| 2026-05-06 14:42 | 53.36659 | -2.28550 | 236 ft | 0 kts | 136° |
| 2026-05-06 14:46 | 53.36664 | -2.28556 | 233 ft | 2 kts | 122° |
| 2026-05-06 14:46 | 53.36668 | -2.28575 | 236 ft | 2 kts | 120° |
| 2026-05-06 14:47 | 53.36676 | -2.28597 | 235 ft | 3 kts | 141° |
| 2026-05-06 14:47 | 53.36692 | -2.28610 | 237 ft | 3 kts | 193° |
| 2026-05-06 14:47 | 53.36709 | -2.28597 | 235 ft | 3 kts | 220° |
| 2026-05-06 14:47 | 53.36721 | -2.28579 | 235 ft | 1 kts | 226° |
| 2026-05-06 14:48 | 53.36722 | -2.28576 | 235 ft | 0 kts | 226° |
| 2026-05-06 14:50 | 53.36722 | -2.28577 | 235 ft | 2 kts | 226° |
| 2026-05-06 14:50 | 53.36662 | -2.28683 | 233 ft | 19 kts | 227° |
| 2026-05-06 14:50 | 53.36578 | -2.28725 | 233 ft | 12 kts | 160° |
| 2026-05-06 14:51 | 53.36518 | -2.28641 | 234 ft | 11 kts | 132° |
| 2026-05-06 14:51 | 53.36464 | -2.28550 | 233 ft | 11 kts | 136° |
| 2026-05-06 14:51 | 53.36395 | -2.28502 | 233 ft | 13 kts | 192° |
| 2026-05-06 14:51 | 53.36320 | -2.28462 | 233 ft | 11 kts | 137° |
| 2026-05-06 14:52 | 53.36267 | -2.28375 | 233 ft | 10 kts | 134° |
| 2026-05-06 14:52 | 53.36205 | -2.28266 | 233 ft | 16 kts | 134° |
| 2026-05-06 14:52 | 53.36123 | -2.28124 | 235 ft | 18 kts | 134° |
| 2026-05-06 14:52 | 53.36036 | -2.27972 | 234 ft | 19 kts | 135° |
| 2026-05-06 14:53 | 53.35932 | -2.27846 | 233 ft | 18 kts | 186° |
| 2026-05-06 14:53 | 53.35812 | -2.27868 | 234 ft | 18 kts | 183° |
| 2026-05-06 14:53 | 53.35689 | -2.27887 | 233 ft | 18 kts | 186° |
| 2026-05-06 14:53 | 53.35590 | -2.27980 | 235 ft | 16 kts | 231° |
| 2026-05-06 14:54 | 53.35515 | -2.28100 | 233 ft | 14 kts | 213° |
| 2026-05-06 14:54 | 53.35430 | -2.28158 | 233 ft | 14 kts | 187° |
| 2026-05-06 14:54 | 53.35330 | -2.28190 | 233 ft | 14 kts | 200° |
| 2026-05-06 14:54 | 53.35253 | -2.28268 | 233 ft | 12 kts | 219° |
| 2026-05-06 14:55 | 53.35201 | -2.28364 | 233 ft | 10 kts | 231° |
| 2026-05-06 14:55 | 53.35158 | -2.28453 | 237 ft | 11 kts | 231° |
| 2026-05-06 14:55 | 53.35092 | -2.28589 | 235 ft | 16 kts | 231° |
| 2026-05-06 14:55 | 53.35028 | -2.28719 | 254 ft | 14 kts | 228° |
| 2026-05-06 14:56 | 53.34967 | -2.28830 | 235 ft | 12 kts | 226° |
| 2026-05-06 14:56 | 53.34912 | -2.28920 | 233 ft | 10 kts | 223° |
| 2026-05-06 14:56 | 53.34863 | -2.29000 | 233 ft | 10 kts | 225° |
| 2026-05-06 14:56 | 53.34789 | -2.29072 | 235 ft | 16 kts | 189° |
| 2026-05-06 14:57 | 53.34680 | -2.29010 | 234 ft | 17 kts | 126° |
| 2026-05-06 14:57 | 53.34706 | -2.28880 | 233 ft | 10 kts | 53° |
| 2026-05-06 14:57 | 53.34763 | -2.28759 | 236 ft | 26 kts | 52° |
| 2026-05-06 14:57 | 53.35048 | -2.28163 | 233 ft | 102 kts | 50° |
| 2026-05-06 14:58 | 53.35626 | -2.26978 | 251 ft | 157 kts | 51° |
| 2026-05-06 14:58 | 53.36292 | -2.25562 | 972 ft | 149 kts | 53° |
| 2026-05-06 14:58 | 53.36888 | -2.24226 | 1887 ft | 139 kts | 53° |
| 2026-05-06 14:58 | 53.37511 | -2.22908 | 2427 ft | 151 kts | 52° |
| 2026-05-06 14:59 | 53.38203 | -2.21467 | 2861 ft | 166 kts | 52° |
| 2026-05-06 14:59 | 53.38951 | -2.19904 | 3250 ft | 181 kts | 52° |
| 2026-05-06 14:59 | 53.39774 | -2.18182 | 3647 ft | 197 kts | 52° |
| 2026-05-06 14:59 | 53.40666 | -2.16308 | 4018 ft | 216 kts | 52° |
| 2026-05-06 15:00 | 53.41577 | -2.14178 | 4488 ft | 233 kts | 65° |
| 2026-05-06 15:00 | 53.41999 | -2.11484 | 5064 ft | 248 kts | 79° |
| 2026-05-06 15:00 | 53.42308 | -2.08555 | 5685 ft | 260 kts | 79° |
| 2026-05-06 15:00 | 53.42622 | -2.05531 | 6503 ft | 265 kts | 78° |
| 2026-05-06 15:01 | 53.42941 | -2.02456 | 7266 ft | 270 kts | 78° |
| 2026-05-06 15:01 | 53.43266 | -1.99318 | 8018 ft | 276 kts | 78° |
| 2026-05-06 15:01 | 53.43597 | -1.96117 | 8780 ft | 282 kts | 78° |
| 2026-05-06 15:01 | 53.43933 | -1.92871 | 9527 ft | 287 kts | 78° |
| 2026-05-06 15:02 | 53.44278 | -1.89528 | 10245 ft | 293 kts | 78° |
| 2026-05-06 15:02 | 53.44359 | -1.86035 | 10681 ft | 310 kts | 97° |
| 2026-05-06 15:02 | 53.43983 | -1.82380 | 11055 ft | 327 kts | 99° |
| 2026-05-06 15:02 | 53.43559 | -1.78541 | 11436 ft | 342 kts | 99° |
| 2026-05-06 15:03 | 53.43113 | -1.74579 | 12043 ft | 348 kts | 99° |
| 2026-05-06 15:03 | 53.42660 | -1.70564 | 12731 ft | 353 kts | 99° |
| 2026-05-06 15:03 | 53.42203 | -1.66502 | 13439 ft | 356 kts | 99° |
| 2026-05-06 15:03 | 53.41741 | -1.62398 | 14072 ft | 361 kts | 99° |
| 2026-05-06 15:04 | 53.41272 | -1.58245 | 14683 ft | 364 kts | 100° |
| 2026-05-06 15:04 | 53.40800 | -1.54061 | 15288 ft | 367 kts | 100° |
| 2026-05-06 15:04 | 53.40322 | -1.49827 | 15881 ft | 371 kts | 100° |
| 2026-05-06 15:04 | 53.39840 | -1.45548 | 16476 ft | 374 kts | 100° |
| 2026-05-06 15:05 | 53.39352 | -1.41229 | 17062 ft | 378 kts | 100° |
| 2026-05-06 15:05 | 53.38858 | -1.36887 | 17638 ft | 381 kts | 100° |
| 2026-05-06 15:05 | 53.38356 | -1.32506 | 18218 ft | 385 kts | 101° |
| 2026-05-06 15:05 | 53.37848 | -1.28091 | 18728 ft | 388 kts | 101° |
| 2026-05-06 15:06 | 53.37338 | -1.23684 | 19230 ft | 391 kts | 101° |
| 2026-05-06 15:06 | 53.36811 | -1.19143 | 19745 ft | 394 kts | 101° |
| 2026-05-06 15:06 | 53.36290 | -1.14676 | 20241 ft | 397 kts | 101° |
| 2026-05-06 15:06 | 53.35759 | -1.10124 | 20743 ft | 400 kts | 101° |
| 2026-05-06 15:07 | 53.35225 | -1.05540 | 21250 ft | 403 kts | 101° |
| 2026-05-06 15:07 | 53.34687 | -1.00918 | 21750 ft | 406 kts | 101° |
| 2026-05-06 15:07 | 53.34141 | -0.96261 | 22248 ft | 409 kts | 101° |
| 2026-05-06 15:07 | 53.33588 | -0.91572 | 22747 ft | 412 kts | 102° |
| 2026-05-06 15:08 | 53.33029 | -0.86860 | 23230 ft | 415 kts | 102° |